createdAt,value
2022-08-30T00:00:10.436Z,0.00
2022-08-30T00:01:14.182Z,0.00
2022-08-30T00:02:10.462Z,0.00
2022-08-30T00:03:10.688Z,0.00
2022-08-30T00:04:10.390Z,0.00
2022-08-30T00:05:10.372Z,0.00
2022-08-30T00:06:10.359Z,0.00
2022-08-30T00:07:10.350Z,0.00
2022-08-30T00:08:10.331Z,0.00
2022-08-30T00:09:10.372Z,0.00
2022-08-30T00:10:10.302Z,0.00
2022-08-30T00:11:10.295Z,0.00
2022-08-30T00:12:10.293Z,0.00
2022-08-30T00:13:10.271Z,0.00
2022-08-30T00:14:10.252Z,0.00
2022-08-30T00:15:10.362Z,0.00
2022-08-30T00:16:10.307Z,0.00
2022-08-30T00:17:10.213Z,0.00
2022-08-30T00:18:10.215Z,0.00
2022-08-30T00:19:10.214Z,0.00
2022-08-30T00:20:10.184Z,0.00
2022-08-30T00:21:10.197Z,0.00
2022-08-30T00:22:10.157Z,0.00
2022-08-30T00:23:10.135Z,0.00
2022-08-30T00:24:10.144Z,0.00
2022-08-30T00:25:10.117Z,0.00
2022-08-30T00:26:10.105Z,0.00
2022-08-30T00:27:10.120Z,0.00
2022-08-30T00:28:10.086Z,0.00
2022-08-30T00:29:10.081Z,0.00
2022-08-30T00:30:10.057Z,0.00
2022-08-30T00:31:10.103Z,0.00
2022-08-30T00:32:10.032Z,0.00
2022-08-30T00:33:10.052Z,0.00
2022-08-30T00:34:10.026Z,0.00
2022-08-30T00:35:09.989Z,0.00
2022-08-30T00:36:09.978Z,0.00
2022-08-30T00:37:09.987Z,0.00
2022-08-30T00:38:09.952Z,0.00
2022-08-30T00:39:09.972Z,0.00
2022-08-30T00:40:09.977Z,0.00
2022-08-30T00:41:09.920Z,0.00
2022-08-30T00:42:09.901Z,0.00
2022-08-30T00:43:09.939Z,0.00
2022-08-30T00:44:09.872Z,0.00
2022-08-30T00:45:09.928Z,0.00
2022-08-30T00:46:09.901Z,0.00
2022-08-30T00:47:09.836Z,0.00
2022-08-30T00:48:09.824Z,0.00
2022-08-30T00:49:09.818Z,0.00
2022-08-30T00:50:09.805Z,0.00
2022-08-30T00:51:09.814Z,0.00
2022-08-30T00:52:09.774Z,0.00
2022-08-30T00:53:09.826Z,0.00
2022-08-30T00:54:09.747Z,0.00
2022-08-30T00:55:09.737Z,0.00
2022-08-30T00:56:09.717Z,0.00
2022-08-30T00:57:09.745Z,0.00
2022-08-30T00:58:09.711Z,0.00
2022-08-30T00:59:09.688Z,0.00
2022-08-30T01:00:09.668Z,0.00
2022-08-30T01:01:09.737Z,0.00
2022-08-30T01:02:09.684Z,0.00
2022-08-30T01:03:09.787Z,0.00
2022-08-30T01:04:09.621Z,0.00
2022-08-30T01:05:09.609Z,0.00
2022-08-30T01:06:09.589Z,0.00
2022-08-30T01:07:09.581Z,0.00
2022-08-30T01:08:09.596Z,0.00
2022-08-30T01:09:09.583Z,0.00
2022-08-30T01:10:09.552Z,0.00
2022-08-30T01:11:09.533Z,0.00
2022-08-30T01:12:09.522Z,0.00
2022-08-30T01:13:09.522Z,0.00
2022-08-30T01:14:09.493Z,0.00
2022-08-30T01:15:09.513Z,0.00
2022-08-30T01:16:09.549Z,0.00
2022-08-30T01:17:09.462Z,0.00
2022-08-30T01:18:09.444Z,0.00
2022-08-30T01:19:09.444Z,0.00
2022-08-30T01:20:09.415Z,0.00
2022-08-30T01:21:09.425Z,0.00
2022-08-30T01:22:09.395Z,0.00
2022-08-30T01:23:09.491Z,0.00
2022-08-30T01:24:09.369Z,0.00
2022-08-30T01:25:09.364Z,0.00
2022-08-30T01:26:09.338Z,0.00
2022-08-30T01:27:09.453Z,0.00
2022-08-30T01:28:09.318Z,0.00
2022-08-30T01:29:09.308Z,0.00
2022-08-30T01:30:09.289Z,0.00
2022-08-30T01:31:09.341Z,0.00
2022-08-30T01:32:09.290Z,0.00
2022-08-30T01:33:09.417Z,0.00
2022-08-30T01:34:09.249Z,0.00
2022-08-30T01:35:09.229Z,0.00
2022-08-30T01:36:09.221Z,0.00
2022-08-30T01:37:09.209Z,0.00
2022-08-30T01:38:09.190Z,0.00
2022-08-30T01:39:09.210Z,0.00
2022-08-30T01:40:09.236Z,0.00
2022-08-30T01:41:09.155Z,0.00
2022-08-30T01:42:09.133Z,0.00
2022-08-30T01:43:09.139Z,0.00
2022-08-30T01:44:09.122Z,0.00
2022-08-30T01:45:09.124Z,0.00
2022-08-30T01:46:09.137Z,0.00
2022-08-30T01:47:09.074Z,0.00
2022-08-30T01:48:09.063Z,0.00
2022-08-30T01:49:09.064Z,0.00
2022-08-30T01:50:09.043Z,0.00
2022-08-30T01:51:09.066Z,0.00
2022-08-30T01:52:09.015Z,0.00
2022-08-30T01:53:09.100Z,0.00
2022-08-30T01:54:08.985Z,0.00
2022-08-30T01:55:08.976Z,0.00
2022-08-30T01:56:08.966Z,0.00
2022-08-30T01:57:08.978Z,0.00
2022-08-30T01:58:08.937Z,0.00
2022-08-30T01:59:08.928Z,0.00
2022-08-30T02:00:08.909Z,0.00
2022-08-30T02:01:08.924Z,0.00
2022-08-30T02:02:08.887Z,0.00
2022-08-30T02:03:08.929Z,0.00
2022-08-30T02:04:08.986Z,0.00
2022-08-30T02:05:08.858Z,0.00
2022-08-30T02:06:08.838Z,0.00
2022-08-30T02:07:08.829Z,0.00
2022-08-30T02:08:08.810Z,0.00
2022-08-30T02:09:08.847Z,0.00
2022-08-30T02:10:08.781Z,0.00
2022-08-30T02:11:08.772Z,0.00
2022-08-30T02:12:08.753Z,0.00
2022-08-30T02:13:08.773Z,0.00
2022-08-30T02:14:08.732Z,0.00
2022-08-30T02:15:08.743Z,0.00
2022-08-30T02:16:08.716Z,0.00
2022-08-30T02:17:08.723Z,0.00
2022-08-30T02:18:08.683Z,0.00
2022-08-30T02:19:08.673Z,0.00
2022-08-30T02:20:08.667Z,0.00
2022-08-30T02:21:08.682Z,0.00
2022-08-30T02:22:08.635Z,0.00
2022-08-30T02:23:08.615Z,0.00
2022-08-30T02:24:08.605Z,0.00
2022-08-30T02:25:11.238Z,0.00
2022-08-30T02:26:09.626Z,0.00
2022-08-30T02:27:08.572Z,0.00
2022-08-30T02:28:08.558Z,0.00
2022-08-30T02:29:08.547Z,0.00
2022-08-30T02:30:08.548Z,0.00
2022-08-30T02:31:08.572Z,0.00
2022-08-30T02:32:08.521Z,0.00
2022-08-30T02:33:08.491Z,0.00
2022-08-30T02:34:08.490Z,0.00
2022-08-30T02:35:08.484Z,0.00
2022-08-30T02:36:08.460Z,0.00
2022-08-30T02:37:08.451Z,0.00
2022-08-30T02:38:08.461Z,0.00
2022-08-30T02:39:08.436Z,0.00
2022-08-30T02:40:08.488Z,0.00
2022-08-30T02:41:08.412Z,0.00
2022-08-30T02:42:08.383Z,0.00
2022-08-30T02:43:08.374Z,0.00
2022-08-30T02:44:08.473Z,0.00
2022-08-30T02:45:08.342Z,0.00
2022-08-30T02:46:08.417Z,0.00
2022-08-30T02:47:08.320Z,0.00
2022-08-30T02:48:08.303Z,0.00
2022-08-30T02:49:30.251Z,0.00
2022-08-30T02:50:09.314Z,0.00
2022-08-30T02:51:09.299Z,0.00
2022-08-30T02:52:08.254Z,0.00
2022-08-30T02:53:08.244Z,0.00
2022-08-30T02:54:08.226Z,0.00
2022-08-30T02:55:08.217Z,0.00
2022-08-30T02:56:08.247Z,0.00
2022-08-30T02:57:08.197Z,0.00
2022-08-30T02:58:09.186Z,0.00
2022-08-30T02:59:08.168Z,0.00
2022-08-30T03:00:08.156Z,0.00
2022-08-30T03:01:08.195Z,0.00
2022-08-30T03:02:08.157Z,0.00
2022-08-30T03:03:08.127Z,0.00
2022-08-30T03:04:08.110Z,0.00
2022-08-30T03:05:08.088Z,0.00
2022-08-30T03:06:08.069Z,0.00
2022-08-30T03:07:08.074Z,0.00
2022-08-30T03:08:08.072Z,0.00
2022-08-30T03:09:08.050Z,0.00
2022-08-30T03:10:08.020Z,0.00
2022-08-30T03:11:08.010Z,0.00
2022-08-30T03:12:08.007Z,0.00
2022-08-30T03:13:07.991Z,0.00
2022-08-30T03:14:07.997Z,0.00
2022-08-30T03:15:07.963Z,0.00
2022-08-30T03:16:07.965Z,0.00
2022-08-30T03:17:11.234Z,0.00
2022-08-30T03:18:08.928Z,0.00
2022-08-30T03:19:07.916Z,0.00
2022-08-30T03:20:07.921Z,0.00
2022-08-30T03:21:07.894Z,0.00
2022-08-30T03:22:07.883Z,0.00
2022-08-30T03:23:07.879Z,0.00
2022-08-30T03:24:07.845Z,0.00
2022-08-30T03:25:07.844Z,0.00
2022-08-30T03:26:07.858Z,0.00
2022-08-30T03:27:07.814Z,0.00
2022-08-30T03:28:07.796Z,0.00
2022-08-30T03:29:07.813Z,0.00
2022-08-30T03:30:07.776Z,0.00
2022-08-30T03:31:07.773Z,0.00
2022-08-30T03:32:07.837Z,0.00
2022-08-30T03:33:07.737Z,0.00
2022-08-30T03:34:07.728Z,0.00
2022-08-30T03:35:07.744Z,0.00
2022-08-30T03:36:07.730Z,0.00
2022-08-30T03:37:07.704Z,0.00
2022-08-30T03:38:07.701Z,0.00
2022-08-30T03:39:07.660Z,0.00
2022-08-30T03:40:07.716Z,0.00
2022-08-30T03:41:07.639Z,0.00
2022-08-30T03:42:07.621Z,0.00
2022-08-30T03:43:07.610Z,0.00
2022-08-30T03:44:07.645Z,0.00
2022-08-30T03:45:07.583Z,0.00
2022-08-30T03:46:07.634Z,0.00
2022-08-30T03:47:07.560Z,0.00
2022-08-30T03:48:07.552Z,0.00
2022-08-30T03:49:07.534Z,0.00
2022-08-30T03:50:07.543Z,0.00
2022-08-30T03:51:07.524Z,0.00
2022-08-30T03:52:07.493Z,0.00
2022-08-30T03:53:07.484Z,0.00
2022-08-30T03:54:07.485Z,0.00
2022-08-30T03:55:07.459Z,0.00
2022-08-30T03:56:07.575Z,0.00
2022-08-30T03:57:07.447Z,0.00
2022-08-30T03:58:07.416Z,0.00
2022-08-30T03:59:07.407Z,0.00
2022-08-30T04:00:07.406Z,0.00
2022-08-30T04:01:07.432Z,0.00
2022-08-30T04:02:07.424Z,0.00
2022-08-30T04:03:07.358Z,0.00
2022-08-30T04:04:07.350Z,0.00
2022-08-30T04:05:07.328Z,0.00
2022-08-30T04:06:07.316Z,0.00
2022-08-30T04:07:07.317Z,0.00
2022-08-30T04:08:07.316Z,0.00
2022-08-30T04:09:07.281Z,0.00
2022-08-30T04:10:07.272Z,0.00
2022-08-30T04:11:07.250Z,0.00
2022-08-30T04:12:07.241Z,0.00
2022-08-30T04:13:07.232Z,0.00
2022-08-30T04:14:07.262Z,0.00
2022-08-30T04:15:07.222Z,0.00
2022-08-30T04:16:07.205Z,0.00
2022-08-30T04:17:07.188Z,0.00
2022-08-30T04:18:07.162Z,0.00
2022-08-30T04:19:07.362Z,0.00
2022-08-30T04:20:07.162Z,0.00
2022-08-30T04:21:08.802Z,0.00
2022-08-30T04:22:07.113Z,0.00
2022-08-30T04:23:07.108Z,0.00
2022-08-30T04:24:07.096Z,0.00
2022-08-30T04:25:07.089Z,0.00
2022-08-30T04:26:07.084Z,0.00
2022-08-30T04:27:07.062Z,0.00
2022-08-30T04:28:07.035Z,0.00
2022-08-30T04:29:07.025Z,0.00
2022-08-30T04:30:07.009Z,0.00
2022-08-30T04:31:06.997Z,5.62
2022-08-30T04:32:08.109Z,5.62
2022-08-30T04:33:06.988Z,5.62
2022-08-30T04:34:06.958Z,5.62
2022-08-30T04:35:06.956Z,5.62
2022-08-30T04:36:06.928Z,5.62
2022-08-30T04:37:06.927Z,5.62
2022-08-30T04:38:06.938Z,11.25
2022-08-30T04:39:06.900Z,11.25
2022-08-30T04:40:06.916Z,11.25
2022-08-30T04:41:06.882Z,11.25
2022-08-30T04:42:06.874Z,11.25
2022-08-30T04:43:06.849Z,11.25
2022-08-30T04:44:06.869Z,16.88
2022-08-30T04:45:06.829Z,16.88
2022-08-30T04:46:06.918Z,16.88
2022-08-30T04:47:06.807Z,16.88
2022-08-30T04:48:06.782Z,22.50
2022-08-30T04:49:06.773Z,22.50
2022-08-30T04:50:06.780Z,22.50
2022-08-30T04:51:06.742Z,22.50
2022-08-30T04:52:06.734Z,28.12
2022-08-30T04:53:06.724Z,28.12
2022-08-30T04:54:06.723Z,28.12
2022-08-30T04:55:06.697Z,28.12
2022-08-30T04:56:06.719Z,33.75
2022-08-30T04:57:06.674Z,33.75
2022-08-30T04:58:06.667Z,33.75
2022-08-30T04:59:06.644Z,39.38
2022-08-30T05:00:06.640Z,39.38
2022-08-30T05:01:06.668Z,39.38
2022-08-30T05:02:06.775Z,45.00
2022-08-30T05:03:06.586Z,45.00
2022-08-30T05:04:06.578Z,45.00
2022-08-30T05:05:06.580Z,50.62
2022-08-30T05:06:06.557Z,50.62
2022-08-30T05:07:06.547Z,50.62
2022-08-30T05:08:06.558Z,56.25
2022-08-30T05:09:06.518Z,56.25
2022-08-30T05:10:10.949Z,56.25
2022-08-30T05:11:06.489Z,61.88
2022-08-30T05:12:06.479Z,61.88
2022-08-30T05:13:06.533Z,61.88
2022-08-30T05:14:06.483Z,67.50
2022-08-30T05:15:06.448Z,67.50
2022-08-30T05:16:06.506Z,67.50
2022-08-30T05:17:06.411Z,73.12
2022-08-30T05:18:06.404Z,73.12
2022-08-30T05:19:06.393Z,73.12
2022-08-30T05:20:06.412Z,78.75
2022-08-30T05:21:06.362Z,78.75
2022-08-30T05:22:06.377Z,78.75
2022-08-30T05:23:06.342Z,84.38
2022-08-30T05:24:06.323Z,84.38
2022-08-30T05:25:06.326Z,84.38
2022-08-30T05:26:06.342Z,84.38
2022-08-30T05:27:06.303Z,90.00
2022-08-30T05:28:06.276Z,90.00
2022-08-30T05:29:06.264Z,90.00
2022-08-30T05:30:06.326Z,95.62
2022-08-30T05:31:06.251Z,95.62
2022-08-30T05:32:07.255Z,95.62
2022-08-30T05:33:06.220Z,101.25
2022-08-30T05:34:06.202Z,101.25
2022-08-30T05:35:06.189Z,101.25
2022-08-30T05:36:06.197Z,101.25
2022-08-30T05:37:06.158Z,106.88
2022-08-30T05:38:06.197Z,106.88
2022-08-30T05:39:06.138Z,106.88
2022-08-30T05:40:07.472Z,112.50
2022-08-30T05:41:08.496Z,112.50
2022-08-30T05:42:06.099Z,112.50
2022-08-30T05:43:06.099Z,112.50
2022-08-30T05:44:06.101Z,118.12
2022-08-30T05:45:06.063Z,118.12
2022-08-30T05:46:06.060Z,118.12
2022-08-30T05:47:06.057Z,118.12
2022-08-30T05:48:06.045Z,123.75
2022-08-30T05:49:06.036Z,123.75
2022-08-30T05:50:06.133Z,123.75
2022-08-30T05:51:05.984Z,123.75
2022-08-30T05:52:05.981Z,129.38
2022-08-30T05:53:05.963Z,129.38
2022-08-30T05:54:05.983Z,129.38
2022-08-30T05:55:05.932Z,129.38
2022-08-30T05:56:05.986Z,135.00
2022-08-30T05:57:05.936Z,135.00
2022-08-30T05:58:05.915Z,135.00
2022-08-30T05:59:05.937Z,135.00
2022-08-30T06:00:05.956Z,140.62
2022-08-30T06:01:05.865Z,140.62
2022-08-30T06:02:05.947Z,140.62
2022-08-30T06:03:05.899Z,140.62
2022-08-30T06:04:05.830Z,140.62
2022-08-30T06:05:05.831Z,146.25
2022-08-30T06:06:08.265Z,146.25
2022-08-30T06:07:05.807Z,146.25
2022-08-30T06:08:05.822Z,146.25
2022-08-30T06:09:05.954Z,151.88
2022-08-30T06:10:05.766Z,151.88
2022-08-30T06:11:05.747Z,151.88
2022-08-30T06:12:05.752Z,151.88
2022-08-30T06:13:05.708Z,151.88
2022-08-30T06:14:05.731Z,157.50
2022-08-30T06:15:05.691Z,157.50
2022-08-30T06:16:05.716Z,157.50
2022-08-30T06:17:05.701Z,157.50
2022-08-30T06:18:05.660Z,157.50
2022-08-30T06:19:07.597Z,163.12
2022-08-30T06:20:05.741Z,163.12
2022-08-30T06:21:11.112Z,163.12
2022-08-30T06:22:06.636Z,163.12
2022-08-30T06:23:05.597Z,163.12
2022-08-30T06:24:05.843Z,168.75
2022-08-30T06:25:07.517Z,168.75
2022-08-30T06:26:06.364Z,168.75
2022-08-30T06:27:06.373Z,168.75
2022-08-30T06:28:06.324Z,168.75
2022-08-30T06:29:05.532Z,168.75
2022-08-30T06:30:05.518Z,168.75
2022-08-30T06:31:05.636Z,168.75
2022-08-30T06:32:06.007Z,168.75
2022-08-30T06:33:06.246Z,168.75
2022-08-30T06:34:06.267Z,168.75
2022-08-30T06:35:06.228Z,168.75
2022-08-30T06:36:06.263Z,168.75
2022-08-30T06:37:06.198Z,174.38
2022-08-30T06:38:06.228Z,174.38
2022-08-30T06:39:05.405Z,174.38
2022-08-30T06:40:05.638Z,174.38
2022-08-30T06:41:05.358Z,174.38
2022-08-30T06:42:05.391Z,174.38
2022-08-30T06:43:05.711Z,174.38
2022-08-30T06:44:05.403Z,180.00
2022-08-30T06:45:10.325Z,180.00
2022-08-30T06:46:06.144Z,180.00
2022-08-30T06:47:06.076Z,180.00
2022-08-30T06:48:06.073Z,180.00
2022-08-30T06:49:05.275Z,180.00
2022-08-30T06:50:07.753Z,185.62
2022-08-30T06:51:06.373Z,185.62
2022-08-30T06:52:05.982Z,185.62
2022-08-30T06:53:05.311Z,185.62
2022-08-30T06:54:05.225Z,185.62
2022-08-30T06:55:05.737Z,185.62
2022-08-30T06:56:06.572Z,185.62
2022-08-30T06:57:05.955Z,191.25
2022-08-30T06:58:05.171Z,191.25
2022-08-30T06:59:05.135Z,191.25
2022-08-30T07:00:05.132Z,191.25
2022-08-30T07:01:05.905Z,191.25
2022-08-30T07:02:06.074Z,191.25
2022-08-30T07:03:05.943Z,191.25
2022-08-30T07:04:06.113Z,196.88
2022-08-30T07:05:05.871Z,196.88
2022-08-30T07:06:05.849Z,196.88
2022-08-30T07:07:05.839Z,196.88
2022-08-30T07:08:05.865Z,196.88
2022-08-30T07:09:05.910Z,196.88
2022-08-30T07:10:05.052Z,196.88
2022-08-30T07:11:04.992Z,196.88
2022-08-30T07:12:08.189Z,202.50
2022-08-30T07:13:05.406Z,202.50
2022-08-30T07:14:05.313Z,202.50
2022-08-30T07:15:06.273Z,202.50
2022-08-30T07:16:07.781Z,202.50
2022-08-30T07:17:04.997Z,202.50
2022-08-30T07:18:05.849Z,202.50
2022-08-30T07:19:05.673Z,202.50
2022-08-30T07:20:05.576Z,208.12
2022-08-30T07:21:05.668Z,208.12
2022-08-30T07:22:05.669Z,208.12
2022-08-30T07:23:05.144Z,208.12
2022-08-30T07:24:05.626Z,208.12
2022-08-30T07:25:05.599Z,208.12
2022-08-30T07:26:05.837Z,208.12
2022-08-30T07:27:04.911Z,208.12
2022-08-30T07:28:04.913Z,208.12
2022-08-30T07:29:05.601Z,208.12
2022-08-30T07:30:07.273Z,213.75
2022-08-30T07:31:05.613Z,213.75
2022-08-30T07:32:05.595Z,213.75
2022-08-30T07:33:05.521Z,213.75
2022-08-30T07:34:06.715Z,213.75
2022-08-30T07:35:05.084Z,213.75
2022-08-30T07:36:05.518Z,213.75
2022-08-30T07:37:04.752Z,213.75
2022-08-30T07:38:05.491Z,219.38
2022-08-30T07:39:05.417Z,219.38
2022-08-30T07:40:05.481Z,219.38
2022-08-30T07:41:04.755Z,219.38
2022-08-30T07:42:06.145Z,219.38
2022-08-30T07:43:05.400Z,219.38
2022-08-30T07:44:05.415Z,219.38
2022-08-30T07:45:05.412Z,219.38
2022-08-30T07:46:05.411Z,225.00
2022-08-30T07:47:05.338Z,225.00
2022-08-30T07:48:05.308Z,225.00
2022-08-30T07:49:05.301Z,225.00
2022-08-30T07:50:06.447Z,225.00
2022-08-30T07:51:05.638Z,225.00
2022-08-30T07:52:07.104Z,225.00
2022-08-30T07:53:07.909Z,230.62
2022-08-30T07:54:06.256Z,230.62
2022-08-30T07:55:05.217Z,230.62
2022-08-30T07:56:05.340Z,230.62
2022-08-30T07:57:05.211Z,236.25
2022-08-30T07:58:05.206Z,236.25
2022-08-30T07:59:05.194Z,236.25
2022-08-30T08:00:05.149Z,236.25
2022-08-30T08:01:05.152Z,241.88
2022-08-30T08:02:06.511Z,241.88
2022-08-30T08:03:05.285Z,247.50
2022-08-30T08:04:05.103Z,247.50
2022-08-30T08:05:05.083Z,247.50
2022-08-30T08:06:05.102Z,253.12
2022-08-30T08:07:05.076Z,253.12
2022-08-30T08:08:05.086Z,253.12
2022-08-30T08:09:04.286Z,253.12
2022-08-30T08:10:05.034Z,258.75
2022-08-30T08:11:05.039Z,258.75
2022-08-30T08:12:06.735Z,264.38
2022-08-30T08:13:04.526Z,270.00
2022-08-30T08:14:05.076Z,270.00
2022-08-30T08:15:06.775Z,270.00
2022-08-30T08:16:05.082Z,270.00
2022-08-30T08:17:04.996Z,275.62
2022-08-30T08:18:04.257Z,275.62
2022-08-30T08:19:04.910Z,275.62
2022-08-30T08:20:04.248Z,281.25
2022-08-30T08:21:04.200Z,281.25
2022-08-30T08:22:19.953Z,275.62
2022-08-30T08:23:07.083Z,241.88
2022-08-30T08:24:05.053Z,281.25
2022-08-30T08:25:06.169Z,275.62
2022-08-30T08:26:04.294Z,281.25
2022-08-30T08:27:04.121Z,281.25
2022-08-30T08:28:04.054Z,281.25
2022-08-30T08:29:04.795Z,281.25
2022-08-30T08:30:03.998Z,281.25
2022-08-30T08:31:04.054Z,281.25
2022-08-30T08:32:04.818Z,286.88
2022-08-30T08:33:04.756Z,286.88
2022-08-30T08:34:04.743Z,286.88
2022-08-30T08:35:04.714Z,286.88
2022-08-30T08:36:08.802Z,286.88
2022-08-30T08:37:03.994Z,286.88
2022-08-30T08:38:03.945Z,292.50
2022-08-30T08:39:03.930Z,292.50
2022-08-30T08:40:03.942Z,292.50
2022-08-30T08:41:03.850Z,292.50
2022-08-30T08:42:05.912Z,292.50
2022-08-30T08:43:04.601Z,292.50
2022-08-30T08:44:03.885Z,292.50
2022-08-30T08:45:08.780Z,292.50
2022-08-30T08:46:04.947Z,292.50
2022-08-30T08:47:04.264Z,292.50
2022-08-30T08:48:04.264Z,292.50
2022-08-30T08:49:03.838Z,292.50
2022-08-30T08:50:04.189Z,292.50
2022-08-30T08:51:05.726Z,292.50
2022-08-30T08:52:03.982Z,286.88
2022-08-30T08:53:04.540Z,298.12
2022-08-30T08:54:04.778Z,298.12
2022-08-30T08:55:04.555Z,286.88
2022-08-30T08:56:04.476Z,286.88
2022-08-30T08:57:03.797Z,292.50
2022-08-30T08:58:03.697Z,292.50
2022-08-30T08:59:03.636Z,292.50
2022-08-30T09:00:04.397Z,292.50
2022-08-30T09:01:03.782Z,292.50
2022-08-30T09:02:04.498Z,298.12
2022-08-30T09:03:03.772Z,298.12
2022-08-30T09:04:04.447Z,298.12
2022-08-30T09:05:04.410Z,292.50
2022-08-30T09:06:04.359Z,286.88
2022-08-30T09:07:03.590Z,292.50
2022-08-30T09:08:06.629Z,286.88
2022-08-30T09:09:04.632Z,298.12
2022-08-30T09:10:04.273Z,303.75
2022-08-30T09:11:04.253Z,303.75
2022-08-30T09:12:04.306Z,303.75
2022-08-30T09:13:04.342Z,298.12
2022-08-30T09:14:06.120Z,298.12
2022-08-30T09:15:04.250Z,298.12
2022-08-30T09:16:03.750Z,298.12
2022-08-30T09:17:03.492Z,298.12
2022-08-30T09:18:03.390Z,298.12
2022-08-30T09:19:03.688Z,298.12
2022-08-30T09:20:04.170Z,298.12
2022-08-30T09:21:03.619Z,303.75
2022-08-30T09:22:04.119Z,298.12
2022-08-30T09:23:03.401Z,303.75
2022-08-30T09:24:04.093Z,298.12
2022-08-30T09:25:03.301Z,303.75
2022-08-30T09:26:04.129Z,298.12
2022-08-30T09:27:03.330Z,298.12
2022-08-30T09:28:04.047Z,298.12
2022-08-30T09:29:04.025Z,303.75
2022-08-30T09:30:04.020Z,303.75
2022-08-30T09:31:03.658Z,303.75
2022-08-30T09:32:24.808Z,303.75
2022-08-30T09:33:04.989Z,298.12
2022-08-30T09:34:03.975Z,303.75
2022-08-30T09:35:03.206Z,303.75
2022-08-30T09:36:03.375Z,298.12
2022-08-30T09:37:03.216Z,298.12
2022-08-30T09:38:03.193Z,298.12
2022-08-30T09:39:03.914Z,298.12
2022-08-30T09:40:05.645Z,286.88
2022-08-30T09:41:04.014Z,292.50
2022-08-30T09:42:05.116Z,292.50
2022-08-30T09:43:03.883Z,286.88
2022-08-30T09:44:03.932Z,292.50
2022-08-30T09:45:03.847Z,286.88
2022-08-30T09:46:03.108Z,292.50
2022-08-30T09:47:03.121Z,292.50
2022-08-30T09:48:03.812Z,292.50
2022-08-30T09:49:03.877Z,292.50
2022-08-30T09:50:03.152Z,292.50
2022-08-30T09:51:03.782Z,286.88
2022-08-30T09:52:03.774Z,292.50
2022-08-30T09:53:03.350Z,286.88
2022-08-30T09:54:19.085Z,286.88
2022-08-30T09:55:04.732Z,286.88
2022-08-30T09:56:03.724Z,286.88
2022-08-30T09:57:03.055Z,292.50
2022-08-30T09:58:02.948Z,292.50
2022-08-30T09:59:03.091Z,286.88
2022-08-30T10:00:03.042Z,286.88
2022-08-30T10:01:03.441Z,286.88
2022-08-30T10:02:03.701Z,275.62
2022-08-30T10:03:03.638Z,275.62
2022-08-30T10:04:03.618Z,281.25
2022-08-30T10:05:03.594Z,275.62
2022-08-30T10:06:03.608Z,275.62
2022-08-30T10:07:03.483Z,270.00
2022-08-30T10:08:03.613Z,270.00
2022-08-30T10:09:03.537Z,270.00
2022-08-30T10:10:03.517Z,281.25
2022-08-30T10:11:04.742Z,275.62
2022-08-30T10:12:03.502Z,275.62
2022-08-30T10:13:03.507Z,275.62
2022-08-30T10:14:03.502Z,281.25
2022-08-30T10:15:02.932Z,281.25
2022-08-30T10:16:03.503Z,286.88
2022-08-30T10:17:02.859Z,275.62
2022-08-30T10:18:02.655Z,281.25
2022-08-30T10:19:06.203Z,286.88
2022-08-30T10:20:03.205Z,281.25
2022-08-30T10:21:03.004Z,292.50
2022-08-30T10:22:03.356Z,286.88
2022-08-30T10:23:03.363Z,286.88
2022-08-30T10:24:02.596Z,286.88
2022-08-30T10:25:02.616Z,286.88
2022-08-30T10:26:03.306Z,281.25
2022-08-30T10:27:03.355Z,286.88
2022-08-30T10:28:03.269Z,292.50
2022-08-30T10:29:03.270Z,298.12
2022-08-30T10:30:02.638Z,309.38
2022-08-30T10:31:03.270Z,303.75
2022-08-30T10:34:14.363Z,303.75
2022-08-30T10:35:18.782Z,298.12
2022-08-30T10:36:15.392Z,303.75
2022-08-30T10:37:14.310Z,303.75
2022-08-30T10:38:14.291Z,303.75
2022-08-30T10:39:15.962Z,303.75
2022-08-30T10:40:15.963Z,309.38
2022-08-30T10:41:14.261Z,303.75
2022-08-30T10:42:14.885Z,303.75
2022-08-30T10:43:14.233Z,292.50
2022-08-30T10:44:14.216Z,292.50
2022-08-30T10:45:14.214Z,298.12
2022-08-30T10:46:14.202Z,298.12
2022-08-30T10:47:14.185Z,298.12
2022-08-30T10:48:14.645Z,292.50
2022-08-30T10:49:14.171Z,292.50
2022-08-30T10:50:14.153Z,298.12
2022-08-30T10:51:14.136Z,298.12
2022-08-30T10:52:14.119Z,292.50
2022-08-30T10:53:14.138Z,303.75
2022-08-30T10:54:14.138Z,309.38
2022-08-30T10:55:14.088Z,326.25
2022-08-30T10:56:14.125Z,337.50
2022-08-30T10:57:14.060Z,343.12
2022-08-30T10:58:15.732Z,337.50
2022-08-30T10:59:15.710Z,264.38
2022-08-30T11:00:14.146Z,315.00
2022-08-30T11:01:14.051Z,337.50
2022-08-30T11:02:14.421Z,331.88
2022-08-30T11:03:13.983Z,326.25
2022-08-30T11:04:14.471Z,315.00
2022-08-30T11:05:13.972Z,331.88
2022-08-30T11:06:13.980Z,337.50
2022-08-30T11:07:13.930Z,337.50
2022-08-30T11:08:20.668Z,337.50
2022-08-30T11:09:14.904Z,331.88
2022-08-30T11:10:15.575Z,343.12
2022-08-30T11:11:13.177Z,337.50
2022-08-30T11:12:13.901Z,343.12
2022-08-30T11:13:13.847Z,348.75
2022-08-30T11:14:15.544Z,348.75
2022-08-30T11:15:13.833Z,354.38
2022-08-30T11:16:14.999Z,354.38
2022-08-30T11:17:13.798Z,354.38
2022-08-30T11:18:13.827Z,348.75
2022-08-30T11:19:13.029Z,348.75
2022-08-30T11:20:13.122Z,343.12
2022-08-30T11:21:14.331Z,337.50
2022-08-30T11:22:13.764Z,337.50
2022-08-30T11:23:13.730Z,331.88
2022-08-30T11:24:13.751Z,331.88
2022-08-30T11:25:13.703Z,320.62
2022-08-30T11:26:20.572Z,331.88
2022-08-30T11:27:14.680Z,326.25
2022-08-30T11:28:13.118Z,331.88
2022-08-30T11:29:12.897Z,337.50
2022-08-30T11:30:16.561Z,337.50
2022-08-30T11:31:15.845Z,337.50
2022-08-30T11:32:13.671Z,337.50
2022-08-30T11:33:14.757Z,331.88
2022-08-30T11:34:13.608Z,331.88
2022-08-30T11:35:13.575Z,337.50
2022-08-30T11:36:13.594Z,331.88
2022-08-30T11:37:13.570Z,337.50
2022-08-30T11:38:13.548Z,337.50
2022-08-30T11:39:13.527Z,331.88
2022-08-30T11:40:14.148Z,331.88
2022-08-30T11:41:12.707Z,331.88
2022-08-30T11:42:14.092Z,343.12
2022-08-30T11:43:12.761Z,343.12
2022-08-30T11:44:12.669Z,348.75
2022-08-30T11:45:12.660Z,354.38
2022-08-30T11:46:14.631Z,354.38
2022-08-30T11:47:12.630Z,348.75
2022-08-30T11:48:12.663Z,309.38
2022-08-30T11:49:12.601Z,286.88
2022-08-30T11:50:13.429Z,382.50
2022-08-30T11:51:12.599Z,393.75
2022-08-30T11:52:27.165Z,388.12
2022-08-30T11:53:13.684Z,393.75
2022-08-30T11:54:12.563Z,405.00
2022-08-30T11:55:12.526Z,416.25
2022-08-30T11:56:14.482Z,410.62
2022-08-30T11:57:12.496Z,410.62
2022-08-30T11:58:12.548Z,410.62
2022-08-30T11:59:13.366Z,410.62
2022-08-30T12:00:12.476Z,326.25
2022-08-30T12:01:25.912Z,376.88
2022-08-30T12:02:13.736Z,388.12
2022-08-30T12:03:13.317Z,388.12
2022-08-30T12:04:15.394Z,382.50
2022-08-30T12:05:12.609Z,376.88
2022-08-30T12:06:13.190Z,371.25
2022-08-30T12:07:13.045Z,382.50
2022-08-30T12:08:14.320Z,388.12
2022-08-30T12:09:12.649Z,365.62
2022-08-30T12:10:12.412Z,365.62
2022-08-30T12:11:13.071Z,365.62
2022-08-30T12:12:12.351Z,376.88
2022-08-30T12:13:12.464Z,388.12
2022-08-30T12:14:17.272Z,388.12
2022-08-30T12:15:13.090Z,382.50
2022-08-30T12:16:14.332Z,376.88
2022-08-30T12:17:12.393Z,371.25
2022-08-30T12:18:15.100Z,365.62
2022-08-30T12:19:13.502Z,360.00
2022-08-30T12:20:12.246Z,376.88
2022-08-30T12:21:12.206Z,382.50
2022-08-30T12:22:12.986Z,382.50
2022-08-30T12:23:12.640Z,286.88
2022-08-30T12:24:12.446Z,320.62
2022-08-30T12:25:12.157Z,382.50
2022-08-30T12:26:12.138Z,388.12
2022-08-30T12:27:12.150Z,393.75
2022-08-30T12:28:12.233Z,393.75
2022-08-30T12:29:12.209Z,399.38
2022-08-30T12:30:12.146Z,405.00
2022-08-30T12:31:12.189Z,410.62
2022-08-30T12:32:12.102Z,309.38
2022-08-30T12:33:12.061Z,309.38
2022-08-30T12:34:12.050Z,320.62
2022-08-30T12:35:12.053Z,410.62
2022-08-30T12:36:13.026Z,416.25
2022-08-30T12:37:12.003Z,343.12
2022-08-30T12:38:11.996Z,399.38
2022-08-30T12:39:11.974Z,421.88
2022-08-30T12:40:12.020Z,410.62
2022-08-30T12:41:12.080Z,433.12
2022-08-30T12:42:11.961Z,433.12
2022-08-30T12:43:13.727Z,444.38
2022-08-30T12:44:12.706Z,444.38
2022-08-30T12:45:12.086Z,450.00
2022-08-30T12:46:11.967Z,455.62
2022-08-30T12:47:11.928Z,461.25
2022-08-30T12:48:11.869Z,472.50
2022-08-30T12:49:11.851Z,472.50